Time;durP1;ratioP1;P1;durP2;ratioP2;P2;SDS_P1;SDS_P2;PMS_P1;PMS_P2;Temp;Humidity;BMP_temperature;BMP_pressure;BME280_temperature;BME280_humidity;BME280_pressure;Samples;Min_cycle;Max_cycle;Signal;HPM_P1;HPM_P2
2022/05/02 00:00:56;;;;;;;17.45;15.65;;;;;;;;;;6157165;23;20467;-82
2022/05/02 00:03:22;;;;;;;18.05;16.17;;;;;;;;;;6214661;23;20001;-82
2022/05/02 00:05:51;;;;;;;17.63;14.90;;;;;;;;;;6214403;23;20448;-83
2022/05/02 00:08:22;;;;;;;17.33;15.50;;;;;;;;;;6214541;23;20007;-82
2022/05/02 00:10:48;;;;;;;16.95;15.35;;;;;;;;;;6187802;23;20004;-81
2022/05/02 00:13:19;;;;;;;17.42;15.77;;;;;;;;;;6214898;23;20055;-81
2022/05/02 00:16:06;;;;;;;16.98;15.30;;;;;;;;;;6189634;23;20020;-81
2022/05/02 00:28:20;;;;;;;17.88;16.17;;;;;;;;;;6031431;23;20470;-82
2022/05/02 00:31:05;;;;;;;;;;;;;;;;;;;;;
2022/05/02 00:43:32;;;;;;;16.23;14.70;;;;;;;;;;6151250;22;20397;-83
2022/05/02 00:46:18;;;;;;;16.10;14.50;;;;;;;;;;6153254;23;20013;-82
2022/05/02 00:49:17;;;;;;;;;;;;;;;;;;;;;
2022/05/02 01:10:00;;;;;;;20.58;18.35;;;;;;;;;;5929461;24;20016;-82
2022/05/02 01:12:27;;;;;;;17.73;15.88;;;;;;;;;;5952755;24;20005;-82
2022/05/02 01:15:23;;;;;;;;;;;;;;;;;;;;;
2022/05/02 01:18:07;;;;;;;17.92;16.13;;;;;;;;;;6123893;23;20470;-82
2022/05/02 01:20:33;;;;;;;18.88;17.08;;;;;;;;;;6124115;23;20002;-83
2022/05/02 01:22:59;;;;;;;17.40;15.65;;;;;;;;;;6124184;23;20458;-82
2022/05/02 01:25:28;;;;;;;17.60;16.00;;;;;;;;;;6123642;23;20021;-82
2022/05/02 01:27:54;;;;;;;18.35;16.55;;;;;;;;;;6123998;23;20513;-82
2022/05/02 01:30:20;;;;;;;17.25;15.45;;;;;;;;;;6123525;23;20455;-82
2022/05/02 01:32:46;;;;;;;17.13;15.43;;;;;;;;;;6245728;23;20421;-81
2022/05/02 01:35:17;;;;;;;16.67;15.10;;;;;;;;;;6219214;23;20083;-83
2022/05/02 01:37:43;;;;;;;16.65;15.05;;;;;;;;;;6246136;23;20000;-82
2022/05/02 01:40:09;;;;;;;16.67;14.98;;;;;;;;;;6245969;23;20007;-83
2022/05/02 01:42:36;;;;;;;16.90;15.30;;;;;;;;;;6245761;23;19996;-82
2022/05/02 01:45:04;;;;;;;17.00;15.30;;;;;;;;;;6245985;23;20031;-82
2022/05/02 01:47:30;;;;;;;16.23;14.52;;;;;;;;;;6245925;23;20004;-82
2022/05/02 01:49:58;;;;;;;16.83;15.23;;;;;;;;;;6245808;23;20007;-82
2022/05/02 01:52:24;;;;;;;16.20;14.63;;;;;;;;;;6245926;23;20028;-82
2022/05/02 01:54:50;;;;;;;17.45;15.63;;;;;;;;;;6245321;23;20456;-82
2022/05/02 02:03:36;;;;;;;;;;;;;;;;;;;;;
2022/05/02 02:18:55;;;;;;;;;;;;;;;;;;;;;
2022/05/02 02:22:27;;;;;;;14.45;13.05;;;;;;;;;;6066547;23;20534;-83
2022/05/02 02:24:37;;;;;;;16.08;14.48;;;;;;;;;;6083469;23;20324;-84
2022/05/02 02:27:09;;;;;;;15.57;13.95;;;;;;;;;;6094354;23;20081;-82
2022/05/02 02:29:35;;;;;;;15.70;14.20;;;;;;;;;;6118798;23;20301;-83
2022/05/02 02:32:01;;;;;;;15.60;13.93;;;;;;;;;;6218696;23;20305;-82
2022/05/02 02:34:27;;;;;;;15.70;14.10;;;;;;;;;;6218308;23;20007;-83
2022/05/02 02:36:56;;;;;;;16.00;13.73;;;;;;;;;;6245437;23;20015;-81
2022/05/02 02:39:26;;;;;;;14.98;13.48;;;;;;;;;;6218432;23;20499;-82
2022/05/02 02:41:53;;;;;;;16.30;14.70;;;;;;;;;;6245930;23;19996;-82
2022/05/02 02:44:21;;;;;;;15.25;13.75;;;;;;;;;;6245285;23;20027;-82
2022/05/02 02:46:47;;;;;;;15.27;13.55;;;;;;;;;;6218850;23;20019;-82
2022/05/02 02:49:13;;;;;;;15.05;13.65;;;;;;;;;;6245342;23;20427;-82
2022/05/02 02:51:39;;;;;;;15.52;14.02;;;;;;;;;;6245328;23;20056;-82
2022/05/02 02:54:05;;;;;;;14.68;13.32;;;;;;;;;;6245084;23;20329;-81
2022/05/02 02:56:34;;;;;;;16.08;14.57;;;;;;;;;;6245197;23;20083;-82
2022/05/02 02:59:00;;;;;;;16.05;14.32;;;;;;;;;;6219006;23;20016;-82
2022/05/02 03:01:26;;;;;;;15.02;13.52;;;;;;;;;;6245106;23;20439;-82
2022/05/02 03:03:55;;;;;;;15.48;13.98;;;;;;;;;;6245383;23;20000;-82
2022/05/02 03:06:22;;;;;;;14.77;13.27;;;;;;;;;;6245268;23;20019;-82
2022/05/02 03:08:48;;;;;;;17.38;13.93;;;;;;;;;;6245589;23;20025;-82
2022/05/02 03:11:14;;;;;;;15.32;13.57;;;;;;;;;;6245189;23;20004;-82
2022/05/02 03:13:40;;;;;;;16.58;14.98;;;;;;;;;;6245078;23;20080;-82
2022/05/02 03:16:06;;;;;;;16.85;15.15;;;;;;;;;;6245241;23;20004;-82
2022/05/02 03:18:34;;;;;;;15.90;14.30;;;;;;;;;;6245060;23;19996;-82
2022/05/02 03:21:00;;;;;;;15.05;13.63;;;;;;;;;;6245190;23;20008;-82
2022/05/02 03:23:26;;;;;;;14.43;13.02;;;;;;;;;;6244968;23;20007;-82
2022/05/02 03:25:52;;;;;;;15.48;13.82;;;;;;;;;;6245221;23;20008;-82
2022/05/02 03:28:19;;;;;;;14.82;13.30;;;;;;;;;;6218658;23;20011;-82
2022/05/02 03:30:47;;;;;;;16.40;14.65;;;;;;;;;;6218231;23;20428;-83
2022/05/02 03:33:13;;;;;;;16.02;14.32;;;;;;;;;;6245220;23;20011;-82
2022/05/02 03:35:39;;;;;;;16.55;14.85;;;;;;;;;;6244869;23;20459;-82
2022/05/02 03:38:05;;;;;;;16.75;15.07;;;;;;;;;;6245222;23;20310;-82
2022/05/02 03:40:31;;;;;;;15.90;14.30;;;;;;;;;;6244938;23;19996;-82
2022/05/02 03:43:00;;;;;;;16.98;15.23;;;;;;;;;;6245122;23;20004;-82
2022/05/02 03:45:27;;;;;;;15.90;14.30;;;;;;;;;;6217992;23;20008;-82
2022/05/02 03:48:10;;;;;;;15.88;14.27;;;;;;;;;;6218286;23;20347;-82
2022/05/02 04:34:27;;;;;;;;;;;;;;;;;;;;;
2022/05/02 04:52:28;;;;;;;15.27;13.65;;;;;;;;;;5843293;24;20042;-83
2022/05/02 04:55:14;;;;;;;16.83;15.02;;;;;;;;;;5900832;24;20025;-83
2022/05/02 04:57:51;;;;;;;;;;;;;;;;;;;;;
2022/05/02 05:00:30;;;;;;;;;;;;;;;;;;;;;
2022/05/02 05:02:59;;;;;;;15.00;13.50;;;;;;;;;;6018883;23;20534;-82
2022/05/02 05:05:44;;;;;;;;;;;;;;;;;;;;;
2022/05/02 05:08:28;;;;;;;14.75;13.30;;;;;;;;;;6066005;23;20089;-81
2022/05/02 05:11:05;;;;;;;14.80;12.35;;;;;;;;;;6192598;23;20340;-82
2022/05/02 05:17:10;;;;;;;;;;;;;;;;;;;;;
2022/05/02 05:23:30;;;;;;;14.45;13.07;;;;;;;;;;6114410;23;20061;-82
2022/05/02 05:26:27;;;;;;;;;;;;;;;;;;;;;
2022/05/02 05:29:12;;;;;;;13.90;12.60;;;;;;;;;;6246102;23;20088;-82
2022/05/02 05:31:43;;;;;;;13.55;11.93;;;;;;;;;;6246676;23;20008;-82
2022/05/02 05:34:18;;;;;;;12.15;11.05;;;;;;;;;;6246018;23;20091;-82
2022/05/02 05:37:03;;;;;;;12.40;11.23;;;;;;;;;;6246264;23;20455;-82
2022/05/02 05:39:48;;;;;;;12.20;10.95;;;;;;;;;;6245850;23;20055;-83
2022/05/02 05:42:20;;;;;;;11.23;9.70;;;;;;;;;;6245888;23;20077;-82
2022/05/02 05:44:54;;;;;;;11.63;10.52;;;;;;;;;;6219213;23;20000;-82
2022/05/02 05:47:20;;;;;;;;;;;;;;;;;;6219530;23;20011;-83
2022/05/02 05:50:12;;;;;;;19.30;17.48;;;;;;;;;;6246426;23;19925;-83
2022/05/02 05:52:57;;;;;;;18.17;16.42;;;;;;;;;;6199904;23;19996;-81
2022/05/02 05:55:28;;;;;;;19.40;17.38;;;;;;;;;;6218600;23;20077;-82
2022/05/02 05:57:54;;;;;;;19.35;17.33;;;;;;;;;;6245939;23;20004;-82
2022/05/02 06:00:20;;;;;;;18.83;16.98;;;;;;;;;;6245795;23;20425;-82
2022/05/02 06:03:05;;;;;;;18.35;16.65;;;;;;;;;;6245699;23;20335;-82
2022/05/02 06:05:35;;;;;;;19.58;17.58;;;;;;;;;;6245691;23;20071;-82
2022/05/02 06:08:03;;;;;;;17.73;15.48;;;;;;;;;;6245799;23;20004;-82
2022/05/02 06:10:30;;;;;;;21.13;16.80;;;;;;;;;;6218805;23;20375;-82
2022/05/02 06:13:00;;;;;;;18.55;16.67;;;;;;;;;;6245594;23;20008;-82
2022/05/02 06:21:02;;;;;;;12.70;11.40;;;;;;;;;;6245651;23;20023;-82
2022/05/02 06:23:34;;;;;;;12.02;10.82;;;;;;;;;;6245790;23;20001;-82
2022/05/02 06:26:03;;;;;;;11.18;9.90;;;;;;;;;;6245748;23;20060;-82
2022/05/02 06:28:31;;;;;;;12.35;10.98;;;;;;;;;;6245371;23;20304;-82
2022/05/02 06:30:59;;;;;;;12.60;10.98;;;;;;;;;;6245585;23;20065;-82
2022/05/02 06:33:26;;;;;;;12.23;10.95;;;;;;;;;;6245455;23;20431;-82
2022/05/02 06:36:11;;;;;;;10.60;9.55;;;;;;;;;;6218566;23;20348;-81
2022/05/02 06:38:55;;;;;;;11.90;10.80;;;;;;;;;;6245561;23;20000;-82
2022/05/02 06:41:40;;;;;;;12.13;10.85;;;;;;;;;;6245518;23;20375;-80
2022/05/02 06:44:06;;;;;;;10.85;9.75;;;;;;;;;;6245204;23;19996;-81
2022/05/02 06:46:52;;;;;;;12.35;11.15;;;;;;;;;;6245196;23;20375;-82
2022/05/02 06:49:18;;;;;;;11.85;10.68;;;;;;;;;;6203334;23;20439;-81
2022/05/02 06:51:49;;;;;;;12.68;11.40;;;;;;;;;;6245135;23;20075;-81
2022/05/02 06:54:29;;;;;;;11.88;10.70;;;;;;;;;;6245068;23;20051;-81
2022/05/02 06:56:56;;;;;;;11.60;10.60;;;;;;;;;;6245272;23;20000;-81
2022/05/02 06:59:40;;;;;;;11.52;10.32;;;;;;;;;;6245081;23;20067;-82
2022/05/02 07:02:13;;;;;;;12.18;10.93;;;;;;;;;;6245070;23;20027;-81
2022/05/02 07:04:46;;;;;;;11.27;10.18;;;;;;;;;;6245309;23;20067;-81
2022/05/02 07:07:15;;;;;;;11.38;10.27;;;;;;;;;;6244783;23;20027;-82
2022/05/02 07:09:46;;;;;;;39.47;33.22;;;;;;;;;;6245329;23;20466;-82
2022/05/02 07:12:19;;;;;;;38.53;31.38;;;;;;;;;;6245253;23;20454;-81
2022/05/02 07:14:48;;;;;;;13.03;11.60;;;;;;;;;;6245034;23;20403;-82
2022/05/02 07:17:33;;;;;;;12.73;10.90;;;;;;;;;;6218418;23;20000;-82
2022/05/02 07:20:08;;;;;;;10.73;9.70;;;;;;;;;;6218645;23;20332;-82
2022/05/02 07:22:39;;;;;;;11.52;9.77;;;;;;;;;;6244644;23;20369;-81
2022/05/02 07:25:12;;;;;;;15.75;9.98;;;;;;;;;;6245144;23;20004;-81
2022/05/02 07:27:57;;;;;;;10.27;9.32;;;;;;;;;;6245294;23;20424;-82
2022/05/02 07:30:23;;;;;;;12.15;10.85;;;;;;;;;;6245290;23;20047;-82
2022/05/02 07:32:53;;;;;;;12.07;10.98;;;;;;;;;;6245136;23;20012;-81
2022/05/02 07:35:21;;;;;;;11.35;10.15;;;;;;;;;;6218268;23;20073;-81
2022/05/02 07:37:48;;;;;;;11.50;10.50;;;;;;;;;;6245206;23;20000;-82
2022/05/02 07:40:17;;;;;;;12.43;10.55;;;;;;;;;;6244908;23;19996;-81
2022/05/02 07:42:44;;;;;;;9.93;8.93;;;;;;;;;;6245164;23;20000;-81
2022/05/02 07:45:12;;;;;;;11.60;10.40;;;;;;;;;;6218078;23;20001;-81
2022/05/02 07:47:41;;;;;;;10.55;9.52;;;;;;;;;;6218295;23;20088;-82
2022/05/02 07:50:07;;;;;;;11.32;10.20;;;;;;;;;;6244881;23;20000;-82
2022/05/02 07:52:36;;;;;;;9.95;9.05;;;;;;;;;;6218292;23;20043;-82
2022/05/02 07:55:03;;;;;;;10.45;9.25;;;;;;;;;;6217637;23;20016;-81
2022/05/02 07:57:32;;;;;;;9.50;8.70;;;;;;;;;;6218058;23;20004;-81
2022/05/02 08:00:00;;;;;;;8.32;7.30;;;;;;;;;;6244650;23;20336;-82
2022/05/02 08:02:26;;;;;;;16.95;15.07;;;;;;;;;;6218183;23;20008;-82
2022/05/02 08:04:56;;;;;;;20.63;18.55;;;;;;;;;;6244726;23;20018;-83
2022/05/02 08:07:41;;;;;;;9.05;8.15;;;;;;;;;;6244977;23;19996;-81
2022/05/02 08:10:25;;;;;;;10.50;9.50;;;;;;;;;;6245076;23;20000;-81
2022/05/02 08:12:51;;;;;;;;;;;;;;;;;;6245453;23;20004;-80
2022/05/02 08:15:36;;;;;;;9.98;8.98;;;;;;;;;;6244835;23;19910;-80
2022/05/02 08:18:11;;;;;;;8.77;7.90;;;;;;;;;;6217991;23;20007;-82
2022/05/02 08:20:43;;;;;;;7.88;7.22;;;;;;;;;;6244783;23;20008;-80
2022/05/02 08:29:24;;;;;;;6.65;6.15;;;;;;;;;;6244832;23;20010;-81
2022/05/02 08:31:55;;;;;;;6.45;5.95;;;;;;;;;;6218317;23;20062;-81
2022/05/02 08:34:35;;;;;;;7.53;6.72;;;;;;;;;;6218879;23;20032;-81
2022/05/02 08:37:22;;;;;;;11.52;10.45;;;;;;;;;;6246725;23;20050;-85
2022/05/02 08:40:07;;;;;;;20.10;16.55;;;;;;;;;;6219944;23;20000;-81
2022/05/02 08:42:51;;;;;;;7.30;6.70;;;;;;;;;;6246580;23;20432;-82
2022/05/02 08:45:30;;;;;;;7.22;6.63;;;;;;;;;;6219572;23;20008;-80
2022/05/02 08:48:14;;;;;;;7.00;6.40;;;;;;;;;;6246453;23;19996;-81
2022/05/02 08:50:59;;;;;;;7.00;6.30;;;;;;;;;;6246455;23;20012;-82
2022/05/02 08:53:44;;;;;;;6.72;6.13;;;;;;;;;;6246825;23;19996;-84
2022/05/02 08:56:49;;;;;;;7.88;7.18;;;;;;;;;;6219106;23;20028;-82
2022/05/02 08:59:34;;;;;;;7.53;6.90;;;;;;;;;;6124368;23;20010;-80
2022/05/02 09:01:59;;;;;;;;;;;;;;;;;;6124963;23;20037;-81
2022/05/02 09:04:44;;;;;;;7.90;7.13;;;;;;;;;;6171672;23;20331;-83
2022/05/02 09:07:22;;;;;;;6.57;5.97;;;;;;;;;;6246254;23;20058;-82
2022/05/02 09:10:06;;;;;;;7.60;6.90;;;;;;;;;;6219628;23;20074;-81
2022/05/02 09:12:49;;;;;;;7.35;6.50;;;;;;;;;;6246405;23;20417;-83
2022/05/02 09:15:15;;;;;;;8.13;7.30;;;;;;;;;;6246256;23;20008;-81
2022/05/02 09:17:56;;;;;;;7.10;6.60;;;;;;;;;;6246183;23;19996;-83
2022/05/02 09:20:41;;;;;;;7.57;6.97;;;;;;;;;;6246059;23;20028;-83
2022/05/02 09:23:26;;;;;;;7.50;6.80;;;;;;;;;;6246102;23;20000;-82
2022/05/02 09:25:58;;;;;;;7.05;6.45;;;;;;;;;;6219308;23;20011;-81
2022/05/02 09:28:30;;;;;;;6.75;6.22;;;;;;;;;;6246313;23;20007;-85
2022/05/02 09:30:59;;;;;;;7.40;6.80;;;;;;;;;;6219344;23;20027;-82
2022/05/02 09:33:34;;;;;;;8.48;7.72;;;;;;;;;;6219359;23;19996;-80
2022/05/02 09:36:04;;;;;;;7.60;6.90;;;;;;;;;;6246160;23;20004;-81
2022/05/02 09:38:45;;;;;;;7.90;7.22;;;;;;;;;;6245879;23;20004;-84
2022/05/02 09:41:30;;;;;;;9.50;8.50;;;;;;;;;;6246061;23;20000;-80
2022/05/02 09:49:47;;;;;;;15.00;12.95;;;;;;;;;;6246193;23;19946;-84
2022/05/02 09:52:15;;;;;;;9.82;8.88;;;;;;;;;;6245701;22;20000;-81
2022/05/02 09:58:03;;;;;;;7.53;6.82;;;;;;;;;;6215589;23;20046;-84
2022/05/02 10:01:07;;;;;;;7.68;6.90;;;;;;;;;;6215371;23;20436;-82
2022/05/02 10:03:51;;;;;;;10.82;9.77;;;;;;;;;;6215574;23;20028;-84
2022/05/02 10:06:23;;;;;;;9.90;8.88;;;;;;;;;;6215712;23;20034;-80
2022/05/02 10:09:05;;;;;;;8.57;7.03;;;;;;;;;;6215313;23;19997;-80
2022/05/02 10:11:35;;;;;;;8.73;7.05;;;;;;;;;;6215466;23;20432;-83
2022/05/02 10:14:14;;;;;;;7.63;6.88;;;;;;;;;;6215424;23;20011;-83
2022/05/02 10:16:57;;;;;;;7.30;6.70;;;;;;;;;;6215320;23;20012;-81
2022/05/02 10:19:41;;;;;;;7.13;6.32;;;;;;;;;;6215607;23;19997;-80
2022/05/02 10:22:08;;;;;;;8.95;7.45;;;;;;;;;;6215175;23;20003;-83
2022/05/02 10:24:40;;;;;;;7.53;6.80;;;;;;;;;;6215474;23;20455;-81
2022/05/02 10:27:14;;;;;;;7.45;6.85;;;;;;;;;;6215118;23;20011;-80
2022/05/02 10:29:42;;;;;;;;;;;;;;;;;;6215652;23;20015;-81
2022/05/02 10:32:27;;;;;;;8.25;7.45;;;;;;;;;;6188505;23;20264;-83
2022/05/02 10:34:55;;;;;;;8.40;7.65;;;;;;;;;;6214888;23;20443;-84
2022/05/02 10:37:25;;;;;;;8.27;7.57;;;;;;;;;;6215149;23;20027;-81
2022/05/02 10:39:59;;;;;;;7.07;6.45;;;;;;;;;;6215022;23;20001;-83
2022/05/02 10:42:27;;;;;;;7.50;6.67;;;;;;;;;;6215171;23;20001;-84
2022/05/02 10:44:57;;;;;;;6.85;6.25;;;;;;;;;;6215458;23;20009;-84
2022/05/02 10:47:25;;;;;;;6.25;5.65;;;;;;;;;;6214748;23;20075;-82
2022/05/02 10:50:02;;;;;;;7.43;6.18;;;;;;;;;;6215095;23;20001;-81
2022/05/02 10:52:44;;;;;;;6.53;5.93;;;;;;;;;;6214903;23;20004;-83
2022/05/02 10:55:34;;;;;;;7.07;6.38;;;;;;;;;;6228001;23;20337;-81
2022/05/02 10:58:04;;;;;;;7.75;7.03;;;;;;;;;;6228313;23;20336;-83
2022/05/02 11:00:31;;;;;;;7.28;6.57;;;;;;;;;;6245601;23;20000;-82
2022/05/02 11:03:16;;;;;;;8.98;7.95;;;;;;;;;;6245058;23;20000;-81
2022/05/02 11:05:50;;;;;;;8.82;7.22;;;;;;;;;;6244978;23;20250;-82
2022/05/02 11:08:19;;;;;;;8.80;6.90;;;;;;;;;;6245188;23;19996;-84
2022/05/02 11:10:53;;;;;;;10.02;7.28;;;;;;;;;;6245275;23;20001;-86
2022/05/02 11:13:39;;;;;;;7.55;6.82;;;;;;;;;;6244982;23;20130;-82
2022/05/02 11:16:24;;;;;;;6.97;6.07;;;;;;;;;;6245281;23;20365;-82
2022/05/02 11:22:05;;;;;;;27.85;24.90;;;;;;;;;;6245242;23;20039;-81
2022/05/02 11:24:33;;;;;;;9.02;8.13;;;;;;;;;;6245478;23;20000;-82
2022/05/02 11:27:02;;;;;;;6.90;5.95;;;;;;;;;;6245040;23;20000;-81
2022/05/02 11:29:48;;;;;;;6.50;5.88;;;;;;;;;;6218289;23;20012;-81
2022/05/02 11:32:27;;;;;;;6.18;5.57;;;;;;;;;;6245193;23;20004;-82
2022/05/02 11:35:14;;;;;;;6.93;6.15;;;;;;;;;;6218064;23;20011;-82
2022/05/02 11:37:54;;;;;;;6.80;5.70;;;;;;;;;;6245027;23;20033;-81
2022/05/02 11:40:27;;;;;;;8.07;6.57;;;;;;;;;;6245240;23;20420;-82
2022/05/02 11:42:53;;;;;;;7.78;6.55;;;;;;;;;;6245140;23;20455;-80
2022/05/02 11:45:27;;;;;;;8.48;7.25;;;;;;;;;;6245197;23;19997;-83
2022/05/02 11:48:18;;;;;;;7.93;6.37;;;;;;;;;;6245026;23;20047;-81
2022/05/02 11:50:45;;;;;;;8.75;7.07;;;;;;;;;;6244485;23;20005;-84
2022/05/02 11:53:14;;;;;;;9.23;7.18;;;;;;;;;;6218173;23;20460;-82
2022/05/02 11:55:41;;;;;;;7.88;7.10;;;;;;;;;;6217680;23;20328;-80
2022/05/02 11:58:14;;;;;;;7.63;6.85;;;;;;;;;;6245248;23;20031;-83
2022/05/02 12:00:45;;;;;;;9.13;6.67;;;;;;;;;;6244876;23;20004;-81
2022/05/02 12:03:16;;;;;;;9.57;6.75;;;;;;;;;;6218262;23;20432;-81
2022/05/02 12:06:04;;;;;;;8.13;6.60;;;;;;;;;;6244841;23;20065;-82
2022/05/02 12:08:30;;;;;;;10.02;6.97;;;;;;;;;;6244829;23;19999;-82
2022/05/02 12:11:07;;;;;;;8.50;6.50;;;;;;;;;;6219830;23;20000;-82
2022/05/02 12:13:51;;;;;;;8.23;6.93;;;;;;;;;;6246970;23;20071;-81
2022/05/02 12:16:18;;;;;;;7.50;6.65;;;;;;;;;;6246936;23;20083;-81
2022/05/02 12:18:49;;;;;;;8.00;7.20;;;;;;;;;;6246857;23;20018;-81
2022/05/02 12:21:31;;;;;;;7.53;6.82;;;;;;;;;;6246872;23;20006;-81
2022/05/02 12:23:58;;;;;;;10.50;8.38;;;;;;;;;;6246696;23;20000;-82
2022/05/02 12:26:27;;;;;;;8.30;7.43;;;;;;;;;;6246728;23;20503;-82
2022/05/02 12:28:56;;;;;;;9.13;8.32;;;;;;;;;;6246934;23;20011;-82
2022/05/02 12:31:28;;;;;;;10.55;9.55;;;;;;;;;;6246758;23;20480;-82
2022/05/02 12:34:13;;;;;;;10.65;9.65;;;;;;;;;;6219602;23;20436;-83
2022/05/02 12:36:45;;;;;;;12.85;11.65;;;;;;;;;;6246500;23;20082;-83
2022/05/02 12:39:19;;;;;;;11.32;10.02;;;;;;;;;;6246297;23;20313;-83
2022/05/02 12:41:45;;;;;;;10.52;9.52;;;;;;;;;;6220097;23;20359;-82
2022/05/02 12:44:13;;;;;;;9.60;8.68;;;;;;;;;;6219408;23;20004;-82
2022/05/02 12:46:41;;;;;;;8.48;7.78;;;;;;;;;;6219664;23;20000;-83
2022/05/02 12:49:15;;;;;;;8.38;7.55;;;;;;;;;;6219273;23;20038;-82
2022/05/02 12:51:49;;;;;;;8.95;8.15;;;;;;;;;;6246558;23;20323;-82
2022/05/02 12:54:15;;;;;;;9.10;8.20;;;;;;;;;;6219293;23;20019;-82
2022/05/02 13:00:30;;;;;;;8.88;8.07;;;;;;;;;;6246656;23;20142;-82
2022/05/02 13:02:32;;;;;;;9.48;8.68;;;;;;;;;;6246202;23;20115;-82
2022/05/02 13:05:00;;;;;;;9.00;8.07;;;;;;;;;;6219912;23;20010;-81
2022/05/02 13:07:27;;;;;;;8.93;8.02;;;;;;;;;;6246278;23;20020;-82
2022/05/02 13:09:53;;;;;;;9.82;8.93;;;;;;;;;;6246225;23;20504;-82
2022/05/02 13:12:22;;;;;;;9.15;8.35;;;;;;;;;;6245907;23;20375;-82
2022/05/02 13:14:50;;;;;;;9.85;8.95;;;;;;;;;;6246173;23;20008;-82
2022/05/02 13:17:17;;;;;;;9.75;8.85;;;;;;;;;;6246063;23;19996;-82
2022/05/02 13:19:43;;;;;;;9.27;8.38;;;;;;;;;;6246084;23;20005;-82
2022/05/02 13:22:10;;;;;;;10.68;9.65;;;;;;;;;;6245245;23;20004;-82
2022/05/02 13:24:37;;;;;;;9.77;8.77;;;;;;;;;;6219620;23;20008;-82
2022/05/02 13:27:09;;;;;;;9.60;8.80;;;;;;;;;;6245967;23;20054;-82
2022/05/02 13:29:41;;;;;;;11.55;10.45;;;;;;;;;;6246088;23;20023;-82
2022/05/02 13:32:08;;;;;;;10.60;9.60;;;;;;;;;;6245859;23;20420;-82
2022/05/02 13:34:43;;;;;;;9.90;9.00;;;;;;;;;;6245953;23;20039;-81
2022/05/02 13:37:28;;;;;;;10.15;9.15;;;;;;;;;;6245818;23;20000;-81
2022/05/02 13:39:54;;;;;;;9.32;8.43;;;;;;;;;;6218844;23;20053;-81
2022/05/02 13:42:29;;;;;;;9.73;8.75;;;;;;;;;;6245939;23;20003;-81
2022/05/02 13:44:58;;;;;;;9.88;8.98;;;;;;;;;;6245777;23;20081;-81
2022/05/02 13:47:31;;;;;;;9.93;9.05;;;;;;;;;;6245792;23;20007;-82
2022/05/02 13:50:06;;;;;;;9.18;8.38;;;;;;;;;;6246074;23;20010;-82
2022/05/02 13:52:51;;;;;;;10.57;9.48;;;;;;;;;;6218773;23;20035;-82
2022/05/02 13:55:24;;;;;;;9.73;8.88;;;;;;;;;;6245358;23;20020;-81
2022/05/02 13:58:09;;;;;;;9.85;8.85;;;;;;;;;;6245730;23;20004;-81
2022/05/02 14:03:24;;;;;;;8.98;8.18;;;;;;;;;;6255942;23;19926;-82
2022/05/02 14:08:26;;;;;;;9.18;8.38;;;;;;;;;;6255831;23;20009;-82
2022/05/02 14:10:59;;;;;;;9.15;8.27;;;;;;;;;;6245791;23;20027;-85
2022/05/02 14:13:28;;;;;;;55.17;43.97;;;;;;;;;;6245323;23;20004;-81
2022/05/02 14:16:04;;;;;;;38.25;31.13;;;;;;;;;;6245504;23;20011;-81
2022/05/02 14:18:45;;;;;;;10.85;9.75;;;;;;;;;;6245492;23;20059;-81
2022/05/02 14:21:11;;;;;;;9.55;8.70;;;;;;;;;;6245359;23;20008;-81
2022/05/02 14:23:57;;;;;;;10.73;9.70;;;;;;;;;;6218714;23;20095;-81
2022/05/02 14:26:24;;;;;;;12.20;10.95;;;;;;;;;;6218680;23;20087;-81
2022/05/02 14:28:51;;;;;;;11.73;10.60;;;;;;;;;;6245229;23;20035;-81
2022/05/02 14:31:18;;;;;;;9.40;8.50;;;;;;;;;;6218677;23;20015;-80
2022/05/02 14:33:44;;;;;;;8.98;8.18;;;;;;;;;;6218211;23;20447;-81
2022/05/02 14:36:12;;;;;;;10.23;9.23;;;;;;;;;;6245313;23;20004;-81
2022/05/02 14:38:38;;;;;;;10.43;9.23;;;;;;;;;;6245350;23;20012;-81
2022/05/02 14:41:05;;;;;;;11.07;10.07;;;;;;;;;;6245220;23;20027;-80
2022/05/02 14:43:31;;;;;;;11.23;10.23;;;;;;;;;;6218496;23;19996;-81
2022/05/02 14:45:58;;;;;;;12.85;11.52;;;;;;;;;;6245052;23;20004;-81
2022/05/02 14:48:24;;;;;;;11.35;10.25;;;;;;;;;;6245240;23;20424;-81
2022/05/02 14:50:52;;;;;;;12.02;10.93;;;;;;;;;;6245401;23;20008;-81
2022/05/02 14:53:20;;;;;;;11.75;10.63;;;;;;;;;;6245154;23;20062;-81
2022/05/02 14:55:57;;;;;;;11.00;10.00;;;;;;;;;;6244649;23;20047;-81
2022/05/02 14:58:24;;;;;;;12.48;11.27;;;;;;;;;;6245259;23;20039;-81
2022/05/02 15:00:55;;;;;;;11.30;10.40;;;;;;;;;;6244887;23;20000;-81
2022/05/02 15:03:27;;;;;;;11.82;10.82;;;;;;;;;;6245217;23;20473;-81
2022/05/02 15:05:56;;;;;;;51.97;46.90;;;;;;;;;;6218597;23;20004;-81
2022/05/02 15:09:01;;;;;;;19.90;16.95;;;;;;;;;;6245051;23;20079;-81
2022/05/02 15:11:31;;;;;;;24.50;18.90;;;;;;;;;;6123197;23;20084;-80
2022/05/02 15:14:09;;;;;;;30.58;23.55;;;;;;;;;;6122812;23;20007;-81
2022/05/02 15:16:54;;;;;;;16.10;14.43;;;;;;;;;;6194931;23;20008;-81
2022/05/02 15:19:38;;;;;;;14.57;13.18;;;;;;;;;;6245198;23;20309;-81
2022/05/02 15:22:04;;;;;;;12.10;10.93;;;;;;;;;;6245198;23;19996;-80
2022/05/02 15:24:45;;;;;;;12.77;11.57;;;;;;;;;;6244925;23;19996;-80
2022/05/02 15:36:39;;;;;;;14.18;12.75;;;;;;;;;;6244636;23;20075;-79
2022/05/02 15:38:47;;;;;;;16.30;14.70;;;;;;;;;;6245014;23;20070;-81
2022/05/02 15:41:14;;;;;;;28.08;25.35;;;;;;;;;;6245180;23;20027;-79
2022/05/02 15:43:40;;;;;;;18.63;16.92;;;;;;;;;;6244866;23;20004;-80
2022/05/02 15:46:13;;;;;;;18.27;16.40;;;;;;;;;;6246794;23;20436;-80
2022/05/02 15:48:40;;;;;;;16.88;15.27;;;;;;;;;;6246825;23;20375;-79
2022/05/02 15:51:14;;;;;;;19.02;16.65;;;;;;;;;;6247047;23;20495;-79
2022/05/02 15:53:41;;;;;;;19.63;17.63;;;;;;;;;;6246909;23;20035;-81
2022/05/02 15:56:13;;;;;;;22.40;20.10;;;;;;;;;;6246812;23;20016;-82
2022/05/02 15:59:00;;;;;;;23.42;20.92;;;;;;;;;;6246690;23;20023;-81
2022/05/02 16:01:36;;;;;;;21.75;19.55;;;;;;;;;;6246763;23;20435;-81
2022/05/02 16:04:12;;;;;;;27.45;24.52;;;;;;;;;;6219921;23;20344;-81
2022/05/02 16:06:51;;;;;;;22.23;19.92;;;;;;;;;;6246867;23;20011;-80
2022/05/02 16:12:09;;;;;;;21.88;19.67;;;;;;;;;;6246956;23;20340;-80
2022/05/02 16:14:42;;;;;;;21.85;19.67;;;;;;;;;;6246445;23;20455;-81
2022/05/02 16:17:08;;;;;;;20.70;18.80;;;;;;;;;;6220278;23;20082;-81
2022/05/02 16:19:44;;;;;;;19.50;17.50;;;;;;;;;;6246772;23;20034;-81
2022/05/02 16:22:13;;;;;;;22.23;20.00;;;;;;;;;;6246725;23;20000;-81
2022/05/02 16:24:40;;;;;;;20.27;18.27;;;;;;;;;;6246489;23;20027;-83
2022/05/02 16:27:14;;;;;;;21.42;19.42;;;;;;;;;;6246577;23;20054;-80
2022/05/02 16:29:40;;;;;;;23.55;21.33;;;;;;;;;;6246592;23;20004;-82
2022/05/02 16:32:06;;;;;;;24.73;22.25;;;;;;;;;;6246492;23;20047;-83
2022/05/02 16:34:52;;;;;;;28.90;25.95;;;;;;;;;;6246283;23;20331;-82
2022/05/02 16:37:21;;;;;;;23.08;20.85;;;;;;;;;;6246415;23;20000;-82
2022/05/02 16:39:50;;;;;;;27.13;24.30;;;;;;;;;;6246459;23;20008;-81
2022/05/02 16:42:16;;;;;;;29.05;26.10;;;;;;;;;;6246249;23;20453;-81
2022/05/02 16:44:46;;;;;;;26.58;23.95;;;;;;;;;;6219854;23;20015;-81
2022/05/02 16:47:12;;;;;;;22.02;19.85;;;;;;;;;;6246423;23;20028;-82
2022/05/02 16:49:41;;;;;;;21.90;17.70;;;;;;;;;;6246618;23;20003;-81
2022/05/02 16:52:08;;;;;;;23.15;20.52;;;;;;;;;;6245920;23;20419;-81
2022/05/02 16:54:34;;;;;;;24.60;20.98;;;;;;;;;;6246217;23;20078;-82
2022/05/02 16:57:00;;;;;;;23.35;20.10;;;;;;;;;;6219146;23;20084;-81
2022/05/02 16:59:26;;;;;;;22.30;20.00;;;;;;;;;;6246506;23;20011;-81
2022/05/02 17:01:56;;;;;;;20.83;18.67;;;;;;;;;;6246149;23;20028;-79
2022/05/02 17:04:23;;;;;;;21.38;18.88;;;;;;;;;;6246418;23;20058;-81
2022/05/02 17:06:50;;;;;;;19.83;17.98;;;;;;;;;;6246210;23;20432;-81
2022/05/02 17:09:16;;;;;;;20.17;18.17;;;;;;;;;;6246265;23;20000;-79
2022/05/02 17:11:44;;;;;;;21.63;19.42;;;;;;;;;;6219494;23;20004;-80
2022/05/02 17:14:11;;;;;;;20.17;18.15;;;;;;;;;;6245972;23;20035;-81
2022/05/02 17:16:43;;;;;;;23.88;21.50;;;;;;;;;;6246326;23;20020;-81
2022/05/02 17:19:17;;;;;;;26.27;23.67;;;;;;;;;;6246252;23;20004;-80
2022/05/02 17:21:58;;;;;;;18.95;17.08;;;;;;;;;;6246066;23;20376;-79
2022/05/02 17:24:24;;;;;;;19.13;17.13;;;;;;;;;;6246241;23;20071;-81
2022/05/02 17:26:54;;;;;;;20.20;18.15;;;;;;;;;;6245880;23;20004;-80
2022/05/02 17:29:21;;;;;;;18.92;17.02;;;;;;;;;;6246323;23;20004;-80
2022/05/02 17:31:57;;;;;;;19.95;17.95;;;;;;;;;;6245969;23;20079;-80
2022/05/02 17:34:24;;;;;;;20.50;18.35;;;;;;;;;;6245905;23;19997;-80
2022/05/02 17:36:55;;;;;;;22.00;19.83;;;;;;;;;;6219304;23;20418;-80
2022/05/02 17:39:22;;;;;;;25.15;22.45;;;;;;;;;;6246010;23;20008;-80
2022/05/02 17:42:07;;;;;;;26.10;23.35;;;;;;;;;;6246117;23;20000;-80
2022/05/02 17:44:35;;;;;;;31.42;27.65;;;;;;;;;;6246118;23;20071;-80
2022/05/02 17:47:03;;;;;;;29.58;26.48;;;;;;;;;;6245971;23;19997;-80
2022/05/02 17:49:33;;;;;;;26.83;23.35;;;;;;;;;;6246036;23;20070;-80
2022/05/02 17:51:59;;;;;;;29.77;26.67;;;;;;;;;;6245818;23;20374;-80
2022/05/02 17:54:26;;;;;;;25.50;22.98;;;;;;;;;;6245686;23;20008;-80
2022/05/02 17:56:54;;;;;;;46.42;41.38;;;;;;;;;;6245959;23;20024;-80
2022/05/02 17:59:22;;;;;;;48.20;43.13;;;;;;;;;;6245639;23;20192;-81